createdAt,value
2018-03-26T00:01:43.882Z,93141.00
2018-03-26T00:04:16.545Z,93145.67
2018-03-26T00:06:44.990Z,93140.75
2018-03-26T00:09:13.415Z,93139.16
2018-03-26T00:11:42.696Z,93142.45
2018-03-26T00:14:13.188Z,93148.61
2018-03-26T00:16:43.499Z,93140.20
2018-03-26T00:19:13.525Z,93142.13
2018-03-26T00:21:41.954Z,93138.32
2018-03-26T00:24:12.401Z,93142.84
2018-03-26T00:26:40.826Z,93142.65
2018-03-26T00:29:11.333Z,93138.92
2018-03-26T00:31:39.800Z,93134.24
2018-03-26T00:34:08.213Z,93144.70
2018-03-26T00:36:36.730Z,93151.33
2018-03-26T00:39:07.346Z,93145.70
2018-03-26T00:41:35.794Z,93146.84
2018-03-26T00:44:06.154Z,93152.45
2018-03-26T00:46:34.631Z,93156.91
2018-03-26T00:49:03.119Z,93157.63
2018-03-26T00:51:31.578Z,93158.13
2018-03-26T00:54:02.017Z,93156.41
2018-03-26T00:56:32.099Z,93159.08
2018-03-26T00:59:00.545Z,93159.23
2018-03-26T01:01:29.218Z,93156.31
2018-03-26T01:03:59.604Z,93157.48
2018-03-26T01:06:28.031Z,93151.72
2018-03-26T01:08:56.469Z,93151.48
2018-03-26T01:11:24.988Z,93157.08
2018-03-26T01:13:53.526Z,93161.72
2018-03-26T01:16:24.137Z,93154.67
2018-03-26T01:18:52.559Z,93150.83
2018-03-26T01:21:23.149Z,93155.46
2018-03-26T01:23:51.565Z,93154.92
2018-03-26T01:26:21.753Z,93157.77
2018-03-26T01:28:51.907Z,93158.48
2018-03-26T01:31:20.344Z,93156.40
2018-03-26T01:33:51.160Z,93159.91
2018-03-26T01:36:19.665Z,93160.72
2018-03-26T01:38:48.037Z,93162.59
2018-03-26T01:41:16.497Z,93159.75
2018-03-26T01:43:44.945Z,93162.20
2018-03-26T01:46:13.372Z,93169.30
2018-03-26T01:48:45.385Z,93166.33
2018-03-26T01:51:13.825Z,93169.16
2018-03-26T01:53:42.249Z,93168.43
2018-03-26T01:56:12.185Z,93168.02
2018-03-26T01:58:40.598Z,93175.08
2018-03-26T02:01:10.694Z,93175.42
2018-03-26T02:03:39.109Z,93171.45
2018-03-26T02:06:07.568Z,93185.38
2018-03-26T02:08:35.993Z,93182.78
2018-03-26T02:11:04.456Z,93187.80
2018-03-26T02:13:32.913Z,93180.23
2018-03-26T02:16:02.262Z,93183.94
2018-03-26T02:18:34.390Z,93178.48
2018-03-26T02:21:02.819Z,93178.78
2018-03-26T02:23:31.221Z,93175.86
2018-03-26T02:25:59.649Z,93175.98
2018-03-26T02:28:28.148Z,93182.67
2018-03-26T02:30:56.572Z,93183.49
2018-03-26T02:33:25.039Z,93184.78
2018-03-26T02:35:53.498Z,93183.51
2018-03-26T02:38:23.464Z,93186.19
2018-03-26T02:40:51.913Z,93187.48
2018-03-26T02:43:20.436Z,93186.50
2018-03-26T02:45:48.872Z,93184.39
2018-03-26T02:48:17.637Z,93182.53
2018-03-26T02:50:46.106Z,93191.02
2018-03-26T02:53:14.537Z,93194.59
2018-03-26T02:55:46.506Z,93190.15
2018-03-26T02:58:15.001Z,93191.77
2018-03-26T03:00:45.353Z,93194.51
2018-03-26T03:03:19.909Z,93188.11
2018-03-26T03:05:48.354Z,93187.40
2018-03-26T03:08:16.713Z,93194.13
2018-03-26T03:10:45.164Z,93198.15
2018-03-26T03:13:13.752Z,93202.11
2018-03-26T03:15:42.251Z,93197.66
2018-03-26T03:18:11.009Z,93210.59
2018-03-26T03:20:42.825Z,93204.05
2018-03-26T03:23:12.304Z,93209.55
2018-03-26T03:25:40.717Z,93206.48
2018-03-26T03:28:09.140Z,93207.52
2018-03-26T03:30:39.102Z,93202.34
2018-03-26T03:33:07.540Z,93210.38
2018-03-26T03:35:35.961Z,93210.21
2018-03-26T03:38:06.548Z,93213.93
2018-03-26T03:40:34.956Z,93214.98
2018-03-26T03:43:06.819Z,93222.49
2018-03-26T03:45:37.208Z,93228.94
2018-03-26T03:48:05.714Z,93229.65
2018-03-26T03:50:34.137Z,93239.45
2018-03-26T03:53:02.817Z,93237.16
2018-03-26T03:55:33.019Z,93237.84
2018-03-26T03:58:03.829Z,93241.80
2018-03-26T04:00:32.290Z,93243.53
2018-03-26T04:03:00.761Z,93244.67
2018-03-26T04:05:29.265Z,93241.77
2018-03-26T04:07:57.704Z,93243.86
2018-03-26T04:10:26.185Z,93246.02
2018-03-26T04:12:57.036Z,93240.22
2018-03-26T04:15:26.256Z,93247.80
2018-03-26T04:17:54.693Z,93248.73
2018-03-26T04:20:23.142Z,93252.16
2018-03-26T04:22:53.117Z,93251.45
2018-03-26T04:25:21.537Z,93251.53
2018-03-26T04:27:49.957Z,93252.31
2018-03-26T04:30:18.404Z,93252.12
2018-03-26T04:32:46.819Z,93248.28
2018-03-26T04:35:15.245Z,93258.36
2018-03-26T04:37:43.724Z,93257.20
2018-03-26T04:40:12.264Z,93267.21
2018-03-26T04:42:40.669Z,93266.27
2018-03-26T04:45:09.075Z,93265.59
2018-03-26T04:47:37.513Z,93270.34
2018-03-26T04:50:06.021Z,93275.30
2018-03-26T04:52:36.750Z,93270.42
2018-03-26T04:55:07.282Z,93270.75
2018-03-26T04:57:35.737Z,93277.95
2018-03-26T05:00:04.216Z,93269.42
2018-03-26T05:02:32.647Z,93270.67
2018-03-26T05:05:03.447Z,93275.03
2018-03-26T05:07:32.483Z,93273.81
2018-03-26T05:10:03.035Z,93268.32
2018-03-26T05:12:31.486Z,93275.39
2018-03-26T05:14:59.915Z,93268.20
2018-03-26T05:17:28.337Z,93273.30
2018-03-26T05:19:56.773Z,93272.40
2018-03-26T05:22:25.234Z,93278.59
2018-03-26T05:24:53.658Z,93276.53
2018-03-26T05:27:22.504Z,93277.08
2018-03-26T05:29:50.901Z,93281.84
2018-03-26T05:32:21.138Z,93285.66
2018-03-26T05:34:51.693Z,93278.02
2018-03-26T05:37:20.104Z,93285.59
2018-03-26T05:39:48.570Z,93288.25
2018-03-26T05:42:16.993Z,93288.17
2018-03-26T05:44:49.609Z,93293.08
2018-03-26T05:47:18.033Z,93287.55
2018-03-26T05:49:46.427Z,93292.75
2018-03-26T05:52:15.165Z,93294.66
2018-03-26T05:54:43.572Z,93290.70
2018-03-26T05:57:11.972Z,93299.73
2018-03-26T05:59:40.442Z,93297.77
2018-03-26T06:02:08.903Z,93296.83
2018-03-26T06:04:37.510Z,93305.30
2018-03-26T06:07:05.913Z,93315.09
2018-03-26T06:09:34.338Z,93333.63
2018-03-26T06:12:03.890Z,93329.63
2018-03-26T06:14:32.456Z,93323.01
2018-03-26T06:17:12.558Z,93325.48
2018-03-26T06:19:42.573Z,93329.97
2018-03-26T06:22:10.965Z,93327.89
2018-03-26T06:24:40.942Z,93327.20
2018-03-26T06:27:09.409Z,93325.64
2018-03-26T06:29:37.880Z,93336.46
2018-03-26T06:32:06.333Z,93333.73
2018-03-26T06:34:34.777Z,93334.95
2018-03-26T06:37:11.376Z,93338.24
2018-03-26T06:39:42.298Z,93343.03
2018-03-26T06:42:10.684Z,93342.42
2018-03-26T06:44:39.084Z,93342.62
2018-03-26T06:47:10.282Z,93349.31
2018-03-26T06:49:38.771Z,93350.83
2018-03-26T06:52:09.816Z,93354.13
2018-03-26T06:54:38.215Z,93358.97
2018-03-26T06:57:06.626Z,93358.59
2018-03-26T06:59:36.148Z,93359.58
2018-03-26T07:02:05.868Z,93357.97
2018-03-26T07:04:36.844Z,93356.64
2018-03-26T07:07:06.129Z,93365.05
2018-03-26T07:09:36.208Z,93360.36
2018-03-26T07:12:04.625Z,93359.83
2018-03-26T07:14:34.099Z,93364.44
2018-03-26T07:17:02.603Z,93359.27
2018-03-26T07:19:31.055Z,93363.02
2018-03-26T07:22:00.613Z,93367.36
2018-03-26T07:24:31.457Z,93370.25
2018-03-26T07:27:00.984Z,93370.46
2018-03-26T07:29:29.362Z,93380.29
2018-03-26T07:31:57.789Z,93373.91
2018-03-26T07:34:27.409Z,93375.07
2018-03-26T07:36:55.966Z,93380.45
2018-03-26T07:39:25.230Z,93381.64
2018-03-26T07:41:53.651Z,93382.92
2018-03-26T07:44:22.113Z,93383.73
2018-03-26T07:46:50.661Z,93386.36
2018-03-26T07:49:19.141Z,93385.05
2018-03-26T07:51:47.640Z,93384.70
2018-03-26T07:54:16.117Z,93387.42
2018-03-26T07:56:45.656Z,93391.45
2018-03-26T07:59:14.159Z,93389.95
2018-03-26T08:01:42.549Z,93394.03
2018-03-26T08:04:10.977Z,93389.96
2018-03-26T08:06:39.413Z,93395.52
2018-03-26T08:09:07.836Z,93403.69
2018-03-26T08:11:36.269Z,93398.88
2018-03-26T08:14:04.781Z,93407.44
2018-03-26T08:16:34.106Z,93405.57
2018-03-26T08:19:04.022Z,93403.55
2018-03-26T08:21:32.458Z,93406.61
2018-03-26T08:24:02.088Z,93409.47
2018-03-26T08:26:30.543Z,93422.34
2018-03-26T08:28:59.005Z,93421.78
2018-03-26T08:31:27.710Z,93430.54
2018-03-26T08:33:56.125Z,93423.27
2018-03-26T08:36:24.610Z,93431.56
2018-03-26T08:38:53.451Z,93428.33
2018-03-26T08:41:21.889Z,93430.30
2018-03-26T08:43:50.301Z,93421.13
2018-03-26T08:46:18.760Z,93420.93
2018-03-26T08:48:47.188Z,93425.28
2018-03-26T08:51:16.702Z,93419.52
2018-03-26T08:53:46.136Z,93428.53
2018-03-26T08:56:14.582Z,93423.08
2018-03-26T08:58:43.041Z,93423.10
2018-03-26T09:01:11.514Z,93424.70
2018-03-26T09:03:40.844Z,93430.33
2018-03-26T09:06:08.487Z,93424.89
2018-03-26T09:08:38.083Z,93427.21
2018-03-26T09:11:07.803Z,93432.13
2018-03-26T09:13:36.386Z,93433.73
2018-03-26T09:16:05.220Z,93438.72
2018-03-26T09:18:33.700Z,93435.76
2018-03-26T09:21:02.160Z,93441.11
2018-03-26T09:23:30.563Z,93442.29
2018-03-26T09:25:58.986Z,93438.05
2018-03-26T09:28:27.417Z,93442.16
2018-03-26T09:30:55.865Z,93436.37
2018-03-26T09:33:24.277Z,93436.21
2018-03-26T09:35:52.729Z,93440.35
2018-03-26T09:38:21.202Z,93436.13
2018-03-26T09:40:48.632Z,93436.02
2018-03-26T09:43:19.331Z,93435.14
2018-03-26T09:45:47.794Z,93431.84
2018-03-26T09:48:16.302Z,93434.70
2018-03-26T09:50:44.713Z,93430.78
2018-03-26T09:53:13.268Z,93436.87
2018-03-26T09:55:42.750Z,93433.44
2018-03-26T09:58:13.482Z,93435.55
2018-03-26T10:00:47.978Z,93434.36
2018-03-26T10:03:16.393Z,93443.33
2018-03-26T10:05:44.876Z,93440.00
2018-03-26T10:08:13.347Z,93451.31
2018-03-26T10:10:41.929Z,93450.06
2018-03-26T10:13:10.396Z,93452.08
2018-03-26T10:15:39.856Z,93456.28
2018-03-26T10:18:09.463Z,93463.00
2018-03-26T10:20:37.957Z,93463.64
2018-03-26T10:23:07.405Z,93457.87
2018-03-26T10:25:36.588Z,93467.34
2018-03-26T10:28:05.096Z,93464.98
2018-03-26T10:30:34.952Z,93462.09
2018-03-26T10:33:03.342Z,93466.33
2018-03-26T10:35:32.782Z,93459.45
2018-03-26T10:38:03.073Z,93461.95
2018-03-26T10:40:31.501Z,93463.56
2018-03-26T10:42:59.915Z,93462.28
2018-03-26T10:45:28.357Z,93468.10
2018-03-26T10:47:56.835Z,93471.88
2018-03-26T10:50:25.257Z,93469.59
2018-03-26T10:52:54.896Z,93476.34
2018-03-26T10:55:23.326Z,93470.89
2018-03-26T10:57:51.771Z,93472.02
2018-03-26T11:00:21.365Z,93470.63
2018-03-26T11:02:49.828Z,93480.38
2018-03-26T11:05:18.262Z,93477.64
2018-03-26T11:07:46.835Z,93479.19
2018-03-26T11:10:15.309Z,93480.69
2018-03-26T11:12:43.753Z,93480.78
2018-03-26T11:15:12.189Z,93479.44
2018-03-26T11:17:40.942Z,93477.83
2018-03-26T11:20:09.591Z,93474.63
2018-03-26T11:22:38.010Z,93482.22
2018-03-26T11:25:08.862Z,93482.44
2018-03-26T11:27:37.289Z,93486.45
2018-03-26T11:30:07.022Z,93488.38
2018-03-26T11:32:35.470Z,93487.36
2018-03-26T11:35:06.638Z,93492.37
2018-03-26T11:37:35.062Z,93492.20
2018-03-26T11:40:03.619Z,93492.44
2018-03-26T11:42:33.210Z,93496.03
2018-03-26T11:45:01.628Z,93500.77
2018-03-26T11:47:33.753Z,93499.05
2018-03-26T11:50:04.878Z,93495.50
2018-03-26T11:52:33.318Z,93496.77
2018-03-26T11:55:01.751Z,93498.02
2018-03-26T11:57:30.226Z,93498.98
2018-03-26T11:59:58.680Z,93503.38
2018-03-26T12:02:27.258Z,93495.41
2018-03-26T12:04:57.095Z,93498.16
2018-03-26T12:07:25.704Z,93497.42
2018-03-26T12:09:54.205Z,93501.13
2018-03-26T12:12:22.820Z,93490.89
2018-03-26T12:14:52.638Z,93496.48
2018-03-26T12:17:21.097Z,93494.05
2018-03-26T12:19:55.743Z,93493.83
2018-03-26T12:22:25.228Z,93493.93
2018-03-26T12:24:55.632Z,93492.80
2018-03-26T12:27:24.080Z,93489.78
2018-03-26T12:29:58.766Z,93489.68
2018-03-26T12:32:28.509Z,93487.34
2018-03-26T12:35:03.136Z,93487.75
2018-03-26T12:37:31.587Z,93486.78
2018-03-26T12:40:00.238Z,93487.70
2018-03-26T12:42:28.672Z,93489.91
2018-03-26T12:45:03.417Z,93491.72
2018-03-26T12:47:31.805Z,93488.11
2018-03-26T12:50:01.855Z,93489.20
2018-03-26T12:52:37.813Z,93490.30
2018-03-26T12:55:07.541Z,93496.38
2018-03-26T12:57:42.245Z,93493.33
2018-03-26T13:00:10.625Z,93497.56
2018-03-26T13:02:39.129Z,93499.52
2018-03-26T13:05:07.591Z,93494.39
2018-03-26T13:07:37.357Z,93495.69
2018-03-26T13:10:05.816Z,93504.51
2018-03-26T13:12:34.236Z,93502.57
2018-03-26T13:15:03.305Z,93512.23
2018-03-26T13:17:31.726Z,93515.53
2018-03-26T13:20:03.143Z,93516.64
2018-03-26T13:22:31.572Z,93515.47
2018-03-26T13:25:01.493Z,93512.28
2018-03-26T13:27:30.026Z,93513.14
2018-03-26T13:29:58.438Z,93512.73
2018-03-26T13:32:29.517Z,93514.41
2018-03-26T13:34:58.029Z,93515.13
2018-03-26T13:37:26.483Z,93523.29
2018-03-26T13:39:55.075Z,93519.45
2018-03-26T13:42:26.287Z,93521.61
2018-03-26T13:44:55.882Z,93527.34
2018-03-26T13:47:24.306Z,93527.00
2018-03-26T13:49:52.861Z,93526.23
2018-03-26T13:52:21.302Z,93525.23
2018-03-26T13:54:50.346Z,93530.87
2018-03-26T13:57:18.830Z,93529.30
2018-03-26T13:59:47.319Z,93532.41
2018-03-26T14:02:15.793Z,93532.14
2018-03-26T14:04:44.221Z,93537.46
2018-03-26T14:07:12.684Z,93531.78
2018-03-26T14:09:47.459Z,93535.19
2018-03-26T14:12:21.837Z,93535.61
2018-03-26T14:14:56.474Z,93540.42
2018-03-26T14:17:31.394Z,93546.55
2018-03-26T14:19:59.786Z,93553.22
2018-03-26T14:22:29.786Z,93555.64
2018-03-26T14:24:59.789Z,93564.10
2018-03-26T14:27:28.254Z,93554.23
2018-03-26T14:29:59.342Z,93559.97
2018-03-26T14:32:30.071Z,93559.97
2018-03-26T14:35:04.756Z,93561.16
2018-03-26T14:37:33.218Z,93563.72
2018-03-26T14:40:01.674Z,93568.95
2018-03-26T14:42:31.672Z,93564.59
2018-03-26T14:45:00.137Z,93573.25
2018-03-26T14:47:28.578Z,93578.61
2018-03-26T14:49:57.011Z,93577.05
2018-03-26T14:52:27.422Z,93582.22
2018-03-26T14:54:57.934Z,93586.67
2018-03-26T14:57:26.358Z,93593.83
2018-03-26T14:59:54.856Z,93592.93
2018-03-26T15:02:23.350Z,93599.66
2018-03-26T15:04:53.306Z,93603.17
2018-03-26T15:07:21.766Z,93607.30
2018-03-26T15:09:50.222Z,93615.45
2018-03-26T15:12:20.194Z,93617.38
2018-03-26T15:14:50.272Z,93621.73
2018-03-26T15:17:18.660Z,93628.34
2018-03-26T15:19:47.342Z,93622.36
2018-03-26T15:22:15.805Z,93620.45
2018-03-26T15:24:45.707Z,93617.31
2018-03-26T15:27:14.183Z,93625.70
2018-03-26T15:29:45.754Z,93626.22
2018-03-26T15:32:14.261Z,93622.92
2018-03-26T15:34:42.717Z,93630.22
2018-03-26T15:37:11.194Z,93629.41
2018-03-26T15:39:39.740Z,93621.16
2018-03-26T15:42:08.238Z,93621.00
2018-03-26T15:44:36.798Z,93625.28
2018-03-26T15:47:05.245Z,93620.58
2018-03-26T15:49:33.672Z,93627.75
2018-03-26T15:52:03.850Z,93631.59
2018-03-26T15:54:33.814Z,93627.58
2018-03-26T15:57:03.738Z,93627.58
2018-03-26T15:59:32.209Z,93622.13
2018-03-26T16:02:00.540Z,93629.00
2018-03-26T16:04:31.470Z,93630.16
2018-03-26T16:07:02.054Z,93627.70
2018-03-26T16:09:32.130Z,93629.32
2018-03-26T16:12:00.564Z,93625.60
2018-03-26T16:14:29.033Z,93632.73
2018-03-26T16:16:59.087Z,93630.91
2018-03-26T16:19:27.517Z,93628.05
2018-03-26T16:21:57.510Z,93632.20
2018-03-26T16:24:27.598Z,93637.25
2018-03-26T16:26:56.049Z,93634.22
2018-03-26T16:29:25.662Z,93641.25
2018-03-26T16:31:56.641Z,93640.00
2018-03-26T16:34:25.100Z,93639.11
2018-03-26T16:36:57.007Z,93639.77
2018-03-26T16:39:25.426Z,93637.56
2018-03-26T16:42:00.011Z,93638.55
2018-03-26T16:44:28.421Z,93634.23
2018-03-26T16:46:57.441Z,93637.81
2018-03-26T16:49:25.876Z,93641.34
2018-03-26T16:51:55.072Z,93638.24
2018-03-26T16:54:23.526Z,93634.50
2018-03-26T16:56:51.990Z,93645.27
2018-03-26T16:59:24.029Z,93642.05
2018-03-26T17:01:52.476Z,93647.35
2018-03-26T17:04:22.333Z,93646.17
2018-03-26T17:06:50.772Z,93651.46
2018-03-26T17:09:21.206Z,93651.02
2018-03-26T17:11:49.682Z,93651.97
2018-03-26T17:14:18.169Z,93654.81
2018-03-26T17:16:50.066Z,93651.98
2018-03-26T17:19:18.549Z,93653.98
2018-03-26T17:21:48.970Z,93656.78
2018-03-26T17:24:17.473Z,93656.41
2018-03-26T17:26:46.250Z,93659.55
2018-03-26T17:29:14.690Z,93658.19
2018-03-26T17:31:43.110Z,93667.48
2018-03-26T17:34:11.832Z,93663.80
2018-03-26T17:36:40.381Z,93673.13
2018-03-26T17:39:08.813Z,93671.58
2018-03-26T17:41:37.273Z,93671.05
2018-03-26T17:44:07.695Z,93672.83
2018-03-26T17:46:36.248Z,93670.23
2018-03-26T17:49:04.718Z,93671.94
2018-03-26T17:51:33.155Z,93673.97
2018-03-26T17:54:01.662Z,93681.92
2018-03-26T17:56:31.338Z,93686.55
2018-03-26T17:58:59.773Z,93683.65
2018-03-26T18:01:28.194Z,93678.86
2018-03-26T18:03:56.633Z,93685.66
2018-03-26T18:06:27.057Z,93677.72
2018-03-26T18:08:56.448Z,93682.33
2018-03-26T18:11:25.047Z,93683.00
2018-03-26T18:13:53.500Z,93688.10
2018-03-26T18:16:27.093Z,93697.19
2018-03-26T18:18:55.564Z,93698.02
2018-03-26T18:21:24.315Z,93699.58
2018-03-26T18:23:54.372Z,93702.41
2018-03-26T18:26:24.412Z,93698.66
2018-03-26T18:28:53.515Z,93710.73
2018-03-26T18:31:22.017Z,93708.30
2018-03-26T18:33:52.449Z,93710.55
2018-03-26T18:36:20.954Z,93718.91
2018-03-26T18:38:49.428Z,93716.19
2018-03-26T18:41:19.847Z,93714.52
2018-03-26T18:43:48.321Z,93718.13
2018-03-26T18:46:18.913Z,93720.64
2018-03-26T18:48:47.418Z,93718.00
2018-03-26T18:51:18.039Z,93723.90
2018-03-26T18:53:46.748Z,93723.91
2018-03-26T18:56:15.220Z,93723.20
2018-03-26T18:58:45.566Z,93724.48
2018-03-26T19:01:15.726Z,93733.91
2018-03-26T19:03:45.790Z,93733.41
2018-03-26T19:06:14.319Z,93733.52
2018-03-26T19:08:42.837Z,93735.05
2018-03-26T19:11:11.391Z,93734.33
2018-03-26T19:13:39.922Z,93739.58
2018-03-26T19:16:08.427Z,93739.61
2018-03-26T19:18:36.915Z,93742.52
2018-03-26T19:21:10.322Z,93742.27
2018-03-26T19:23:38.789Z,93742.19
2018-03-26T19:26:07.672Z,93754.67
2018-03-26T19:28:37.665Z,93756.79
2018-03-26T19:31:06.159Z,93754.68
2018-03-26T19:33:34.629Z,93755.23
2018-03-26T19:36:06.463Z,93762.72
2018-03-26T19:38:34.914Z,93757.43
2018-03-26T19:41:04.983Z,93764.97
2018-03-26T19:43:33.469Z,93762.70
2018-03-26T19:46:01.924Z,93763.75
2018-03-26T19:48:30.585Z,93759.36
2018-03-26T19:51:02.271Z,93772.84
2018-03-26T19:53:30.770Z,93769.02
2018-03-26T19:55:59.197Z,93770.72
2018-03-26T19:58:29.152Z,93766.49
2018-03-26T20:00:57.569Z,93773.42
2018-03-26T20:03:26.057Z,93773.95
2018-03-26T20:05:56.493Z,93777.91
2018-03-26T20:08:24.959Z,93774.45
2018-03-26T20:10:53.843Z,93773.80
2018-03-26T20:13:22.261Z,93780.63
2018-03-26T20:15:52.698Z,93778.81
2018-03-26T20:18:21.412Z,93780.52
2018-03-26T20:20:49.905Z,93783.59
2018-03-26T20:23:18.381Z,93780.81
2018-03-26T20:25:46.852Z,93780.67
2018-03-26T20:28:15.319Z,93781.74
2018-03-26T20:30:45.343Z,93784.68
2018-03-26T20:33:15.238Z,93785.72
2018-03-26T20:35:43.744Z,93783.71
2018-03-26T20:38:12.246Z,93780.97
2018-03-26T20:40:42.446Z,93785.60
2018-03-26T20:43:10.863Z,93787.05
2018-03-26T20:45:39.491Z,93794.29
2018-03-26T20:48:09.539Z,93788.94
2018-03-26T20:50:37.952Z,93792.61
2018-03-26T20:53:07.952Z,93789.02
2018-03-26T20:55:36.410Z,93782.93
2018-03-26T20:58:06.364Z,93792.02
2018-03-26T21:00:36.201Z,93789.34
2018-03-26T21:03:04.710Z,93794.80
2018-03-26T21:05:33.173Z,93792.77
2018-03-26T21:08:01.637Z,93791.64
2018-03-26T21:10:30.130Z,93789.42
2018-03-26T21:12:58.513Z,93792.13
2018-03-26T21:15:27.018Z,93793.69
2018-03-26T21:17:55.593Z,93789.37
2018-03-26T21:20:24.033Z,93787.79
2018-03-26T21:22:56.561Z,93788.69
2018-03-26T21:25:26.574Z,93791.69
2018-03-26T21:27:55.041Z,93789.02
2018-03-26T21:30:23.509Z,93791.64
2018-03-26T21:32:51.891Z,93786.01
2018-03-26T21:35:20.346Z,93792.36
2018-03-26T21:37:48.801Z,93785.34
2018-03-26T21:40:17.237Z,93785.12
2018-03-26T21:42:45.735Z,93783.11
2018-03-26T21:45:14.213Z,93777.73
2018-03-26T21:47:42.626Z,93785.05
2018-03-26T21:50:12.951Z,93787.16
2018-03-26T21:52:42.870Z,93779.59
2018-03-26T21:55:15.453Z,93787.16
2018-03-26T21:57:43.821Z,93786.64
2018-03-26T22:00:16.165Z,93782.67
2018-03-26T22:02:44.835Z,93783.79
2018-03-26T22:05:13.330Z,93773.91
2018-03-26T22:07:43.741Z,93780.45
2018-03-26T22:10:12.535Z,93776.47
2018-03-26T22:12:40.946Z,93782.19
2018-03-26T22:15:09.327Z,93778.29
2018-03-26T22:17:39.442Z,93776.09
2018-03-26T22:20:07.817Z,93772.09
2018-03-26T22:22:37.763Z,93776.73
2018-03-26T22:25:08.079Z,93774.87
2018-03-26T22:27:36.503Z,93777.98
2018-03-26T22:30:06.416Z,93773.58
2018-03-26T22:32:34.852Z,93773.83
2018-03-26T22:35:03.258Z,93773.98
2018-03-26T22:37:35.097Z,93769.75
2018-03-26T22:40:03.536Z,93761.03
2018-03-26T22:42:31.949Z,93755.33
2018-03-26T22:45:01.239Z,93760.38
2018-03-26T22:47:29.645Z,93756.06
2018-03-26T22:49:58.055Z,93763.97
2018-03-26T22:52:26.503Z,93765.86
2018-03-26T22:54:55.674Z,93758.63
2018-03-26T22:57:24.056Z,93756.10
2018-03-26T22:59:53.972Z,93758.36
2018-03-26T23:02:22.332Z,93761.59
2018-03-26T23:04:51.203Z,93763.97
2018-03-26T23:07:19.632Z,93759.00
2018-03-26T23:09:48.018Z,93760.00
2018-03-26T23:12:16.454Z,93758.95
2018-03-26T23:14:44.852Z,93756.02
2018-03-26T23:17:13.331Z,93761.41
2018-03-26T23:19:42.696Z,93759.44
2018-03-26T23:22:11.123Z,93761.30
2018-03-26T23:24:41.109Z,93754.58
2018-03-26T23:27:09.540Z,93757.50
2018-03-26T23:29:39.261Z,93755.23
2018-03-26T23:32:07.740Z,93759.06
2018-03-26T23:34:38.142Z,93756.28
2018-03-26T23:37:06.574Z,93762.55
2018-03-26T23:39:34.984Z,93759.95
2018-03-26T23:42:05.252Z,93756.05
2018-03-26T23:44:33.681Z,93758.65
2018-03-26T23:47:02.114Z,93756.38
2018-03-26T23:49:30.693Z,93755.31
2018-03-26T23:51:59.100Z,93752.38
2018-03-26T23:54:27.562Z,93760.11
2018-03-26T23:56:59.982Z,93759.74
2018-03-26T23:59:28.396Z,93753.58
